Time;durP1;ratioP1;P1;durP2;ratioP2;P2;SDS_P1;SDS_P2;PMS_P1;PMS_P2;Temp;Humidity;BMP_temperature;BMP_pressure;BME280_temperature;BME280_humidity;BME280_pressure;Samples;Min_cycle;Max_cycle;Signal;HPM_P1;HPM_P2
2023/10/15 00:01:44;;;;;;;7.13;1.90;;;7.70;99.90;;;;;;5055463;28;20029;-53
2023/10/15 00:04:12;;;;;;;4.85;1.70;;;7.70;99.90;;;;;;5055476;28;20090;-50
2023/10/15 00:06:38;;;;;;;3.90;1.50;;;7.70;99.90;;;;;;5054830;28;20069;-55
2023/10/15 00:09:04;;;;;;;4.00;1.50;;;7.70;99.90;;;;;;5055185;28;20512;-53
2023/10/15 00:11:30;;;;;;;4.78;1.77;;;7.60;99.90;;;;;;5055278;28;20029;-52
2023/10/15 00:13:56;;;;;;;4.93;1.40;;;7.60;99.90;;;;;;5055242;28;20040;-52
2023/10/15 00:16:22;;;;;;;5.18;1.50;;;7.50;99.90;;;;;;5054739;28;20029;-53
2023/10/15 00:18:47;;;;;;;7.43;1.40;;;7.50;99.90;;;;;;5055091;28;20029;-53
2023/10/15 00:21:13;;;;;;;8.45;1.50;;;7.50;99.90;;;;;;5054730;28;20111;-52
2023/10/15 00:23:44;;;;;;;6.85;2.05;;;7.50;99.90;;;;;;5055112;28;20032;-53
2023/10/15 00:26:12;;;;;;;5.47;1.42;;;7.50;99.90;;;;;;5054023;28;20477;-52
2023/10/15 00:28:38;;;;;;;4.28;1.35;;;7.50;99.90;;;;;;5054976;28;20052;-53
2023/10/15 00:31:13;;;;;;;1.80;0.93;;;7.50;99.90;;;;;;5054942;28;20039;-52
2023/10/15 00:33:46;;;;;;;4.28;1.08;;;7.50;99.90;;;;;;5053973;28;20033;-53
2023/10/15 00:36:15;;;;;;;5.35;1.27;;;7.40;99.90;;;;;;5054906;28;20043;-52
2023/10/15 00:38:44;;;;;;;3.70;1.40;;;7.40;99.90;;;;;;5054890;28;20052;-52
2023/10/15 00:41:13;;;;;;;5.70;1.70;;;7.30;99.90;;;;;;5054890;28;20274;-52
2023/10/15 00:43:52;;;;;;;15.43;2.17;;;7.20;99.90;;;;;;5054897;28;20082;-52
2023/10/15 00:46:18;;;;;;;5.25;1.58;;;7.10;99.90;;;;;;5054489;28;20033;-52
2023/10/15 00:48:45;;;;;;;6.63;1.70;;;7.10;99.90;;;;;;5054789;28;20033;-53
2023/10/15 00:51:11;;;;;;;5.57;1.67;;;7.20;99.90;;;;;;5054777;28;20040;-52
2023/10/15 00:53:47;;;;;;;3.00;1.27;;;7.20;99.90;;;;;;5021125;28;20032;-52
2023/10/15 00:56:13;;;;;;;4.28;1.50;;;7.20;99.90;;;;;;5053635;28;20029;-50
2023/10/15 01:01:20;;;;;;;6.32;1.27;;;7.10;99.90;;;;;;5054798;28;20090;-49
2023/10/15 01:03:57;;;;;;;4.35;1.80;;;7.20;99.90;;;;;;5053680;28;20377;-48
2023/10/15 01:09:19;;;;;;;4.40;1.40;;;7.40;99.90;;;;;;5054454;28;20112;-49
2023/10/15 01:11:51;;;;;;;5.45;1.58;;;7.30;99.90;;;;;;5054572;28;20037;-48
2023/10/15 01:14:30;;;;;;;5.15;1.55;;;7.30;99.90;;;;;;5054227;28;20037;-46
2023/10/15 01:16:56;;;;;;;5.75;1.13;;;7.20;99.90;;;;;;5053337;28;20123;-46
2023/10/15 01:19:31;;;;;;;4.45;1.30;;;7.20;99.90;;;;;;5054575;28;20090;-47
2023/10/15 01:21:58;;;;;;;6.00;1.50;;;7.10;99.90;;;;;;5054473;28;20060;-47
2023/10/15 01:24:26;;;;;;;3.97;1.30;;;7.10;99.90;;;;;;5054207;28;20087;-46
2023/10/15 01:27:14;;;;;;;3.92;1.10;;;7.00;99.90;;;;;;5054247;28;20029;-49
2023/10/15 01:29:40;;;;;;;3.35;1.10;;;6.90;99.90;;;;;;5054288;28;20041;-49
2023/10/15 01:34:52;;;;;;;4.55;1.48;;;6.90;99.90;;;;;;5054382;28;20044;-47
2023/10/15 01:39:48;;;;;;;5.25;1.25;;;7.00;99.90;;;;;;5054417;28;20021;-46
2023/10/15 01:45:09;;;;;;;5.80;1.38;;;7.00;99.90;;;;;;5057897;28;20119;-45
2023/10/15 01:47:36;;;;;;;2.72;1.30;;;6.90;99.90;;;;;;5057995;28;20450;-47
2023/10/15 01:50:08;;;;;;;2.63;1.20;;;6.90;99.90;;;;;;5058008;28;20044;-46
2023/10/15 01:52:41;;;;;;;4.68;1.63;;;6.90;99.90;;;;;;5057860;28;20037;-46
2023/10/15 01:55:06;;;;;;;3.65;1.20;;;6.90;99.90;;;;;;5057621;28;20446;-48
2023/10/15 01:57:33;;;;;;;3.92;1.05;;;6.80;99.90;;;;;;5057880;28;20044;-48
2023/10/15 02:00:33;;;;;;;3.75;1.73;;;6.80;99.90;;;;;;5057715;28;20033;-49
2023/10/15 02:02:56;;;;;;;4.50;1.30;;;6.80;99.90;;;;;;5057432;28;20033;-48
2023/10/15 02:05:29;;;;;;;3.65;1.40;;;6.70;99.90;;;;;;5057353;28;20411;-46
2023/10/15 02:07:56;;;;;;;4.03;1.10;;;6.60;99.90;;;;;;5057644;28;20033;-46
2023/10/15 02:10:22;;;;;;;5.70;1.20;;;6.60;99.90;;;;;;5057128;28;20472;-46
2023/10/15 02:12:59;;;;;;;3.70;1.10;;;6.60;99.90;;;;;;5057499;28;20071;-50
2023/10/15 02:15:31;;;;;;;4.50;1.10;;;6.60;99.90;;;;;;5057351;28;20119;-50
2023/10/15 02:17:59;;;;;;;5.55;1.30;;;6.70;99.90;;;;;;5057454;28;20036;-46
2023/10/15 02:23:15;;;;;;;5.97;1.17;;;6.90;99.90;;;;;;5057253;28;20524;-47
2023/10/15 02:25:45;;;;;;;4.43;1.20;;;6.90;99.90;;;;;;5057396;28;20068;-46
2023/10/15 02:28:11;;;;;;;4.95;1.40;;;7.00;99.90;;;;;;5057279;28;20045;-46
2023/10/15 02:30:40;;;;;;;4.55;1.30;;;7.00;99.90;;;;;;5056575;28;20443;-49
2023/10/15 02:33:06;;;;;;;4.03;1.30;;;7.10;99.90;;;;;;5056958;28;20037;-49
2023/10/15 02:35:39;;;;;;;2.85;1.05;;;7.10;99.90;;;;;;5057082;28;20044;-49
2023/10/15 02:38:10;;;;;;;2.28;1.08;;;7.10;99.90;;;;;;5057112;28;20039;-49
2023/10/15 02:40:56;;;;;;;1.85;0.95;;;7.10;99.90;;;;;;5057354;28;20033;-47
2023/10/15 02:43:24;;;;;;;4.90;2.03;;;7.10;99.90;;;;;;5056557;28;20029;-47
2023/10/15 02:45:50;;;;;;;4.72;1.20;;;7.00;99.90;;;;;;5056942;28;20108;-49
2023/10/15 02:48:20;;;;;;;3.05;1.33;;;7.00;99.90;;;;;;5056782;28;20112;-48
2023/10/15 02:51:03;;;;;;;3.20;1.10;;;6.90;99.90;;;;;;5056721;28;20442;-49
2023/10/15 02:53:39;;;;;;;3.95;1.05;;;6.80;99.90;;;;;;5056185;28;20091;-49
2023/10/15 02:56:11;;;;;;;4.10;1.30;;;6.80;99.90;;;;;;5056513;28;20033;-50
2023/10/15 02:58:40;;;;;;;2.10;0.90;;;6.70;99.90;;;;;;5056457;28;20061;-47
2023/10/15 03:01:17;;;;;;;5.20;1.35;;;6.70;99.90;;;;;;5056194;28;20033;-49
2023/10/15 03:03:48;;;;;;;3.15;1.10;;;6.70;99.90;;;;;;5056722;28;20115;-49
2023/10/15 03:06:18;;;;;;;4.55;1.20;;;6.90;99.90;;;;;;5056341;28;20048;-47
2023/10/15 03:08:47;;;;;;;;;;;6.90;99.90;;;;;;5056656;28;20442;-47
2023/10/15 03:11:13;;;;;;;6.15;1.38;;;6.90;99.90;;;;;;5056453;28;20242;-47
2023/10/15 03:14:03;;;;;;;3.97;1.30;;;7.00;99.90;;;;;;5056480;28;20044;-48
2023/10/15 03:16:32;;;;;;;4.25;1.10;;;7.00;99.90;;;;;;5055871;28;20190;-48
2023/10/15 03:19:23;;;;;;;4.85;0.90;;;7.00;99.90;;;;;;5055935;28;20041;-47
2023/10/15 03:21:56;;;;;;;4.90;1.10;;;7.00;99.90;;;;;;5055308;28;20040;-50
2023/10/15 03:24:22;;;;;;;3.13;1.42;;;7.10;99.90;;;;;;5055861;28;20041;-48
2023/10/15 03:26:48;;;;;;;11.00;1.38;;;7.10;99.90;;;;;;5055179;28;20421;-46
2023/10/15 03:29:13;;;;;;;3.90;1.10;;;7.00;99.90;;;;;;5056076;28;20434;-46
2023/10/15 03:31:44;;;;;;;3.72;0.90;;;7.10;99.90;;;;;;5055016;28;20041;-45
2023/10/15 03:39:53;;;;;;;7.63;1.30;;;7.30;99.90;;;;;;5056056;28;20071;-45
2023/10/15 03:44:45;;;;;;;7.10;1.33;;;7.40;99.90;;;;;;5055628;28;20033;-45
2023/10/15 03:47:12;;;;;;;3.92;1.00;;;7.50;99.90;;;;;;5055445;28;20037;-46
2023/10/15 03:49:37;;;;;;;3.10;0.77;;;7.60;99.90;;;;;;5055698;28;20043;-49
2023/10/15 03:52:08;;;;;;;3.10;1.08;;;7.70;99.90;;;;;;5054615;28;20036;-49
2023/10/15 03:54:35;;;;;;;8.30;1.05;;;7.80;99.90;;;;;;5055281;28;20029;-45
2023/10/15 03:57:01;;;;;;;5.63;1.05;;;7.90;99.90;;;;;;5054396;28;20024;-45
2023/10/15 03:59:27;;;;;;;4.60;1.02;;;8.00;99.90;;;;;;5055627;28;20029;-46
2023/10/15 04:01:56;;;;;;;2.25;0.98;;;8.00;99.90;;;;;;5055476;28;20450;-45
2023/10/15 04:04:22;;;;;;;4.97;1.15;;;8.10;99.90;;;;;;5054076;28;20416;-47
2023/10/15 04:07:03;;;;;;;2.83;1.02;;;8.00;99.90;;;;;;5054907;28;20049;-47
2023/10/15 04:09:33;;;;;;;4.03;1.20;;;7.90;99.90;;;;;;5055427;28;20053;-47
2023/10/15 04:11:59;;;;;;;5.82;1.75;;;7.80;99.90;;;;;;5055342;28;20051;-47
2023/10/15 04:14:32;;;;;;;7.57;1.27;;;7.70;99.90;;;;;;5054177;28;20037;-46
2023/10/15 04:16:58;;;;;;;3.78;1.10;;;7.50;99.90;;;;;;5055211;28;20033;-46
2023/10/15 04:19:27;;;;;;;3.70;1.20;;;7.40;99.90;;;;;;5054810;28;20362;-47
2023/10/15 04:21:59;;;;;;;7.85;1.48;;;7.40;99.90;;;;;;5055153;28;20063;-46
2023/10/15 04:24:36;;;;;;;2.22;0.80;;;7.40;99.90;;;;;;5055291;28;20460;-46
2023/10/15 04:27:03;;;;;;;2.47;0.98;;;7.50;99.90;;;;;;5054976;28;20139;-49
2023/10/15 04:29:30;;;;;;;3.05;1.10;;;7.40;99.90;;;;;;5055046;28;20017;-48
2023/10/15 04:32:00;;;;;;;3.13;1.75;;;7.40;99.90;;;;;;5055034;28;20033;-46
2023/10/15 04:34:28;;;;;;;2.75;0.90;;;7.30;99.90;;;;;;5054879;28;20037;-47
2023/10/15 04:36:57;;;;;;;3.85;0.90;;;7.30;99.90;;;;;;5054602;28;20112;-49
2023/10/15 04:39:22;;;;;;;2.78;0.90;;;7.20;99.90;;;;;;5053821;28;20033;-49
2023/10/15 04:41:51;;;;;;;4.93;1.13;;;7.20;99.90;;;;;;5054903;28;20417;-48
2023/10/15 04:44:31;;;;;;;6.65;1.20;;;7.10;99.90;;;;;;5054559;28;20098;-46
2023/10/15 04:47:05;;;;;;;8.55;1.10;;;7.10;99.90;;;;;;5054634;28;20068;-46
2023/10/15 04:49:33;;;;;;;3.90;1.08;;;7.00;99.90;;;;;;5054722;28;20398;-49
2023/10/15 04:51:59;;;;;;;4.43;0.90;;;7.00;99.90;;;;;;5054282;28;20112;-47
2023/10/15 04:54:25;;;;;;;4.47;1.00;;;6.90;99.90;;;;;;5054592;28;20075;-48
2023/10/15 04:56:56;;;;;;;3.60;1.00;;;6.90;99.90;;;;;;5054741;28;20112;-47
2023/10/15 04:59:22;;;;;;;2.90;0.95;;;6.90;99.90;;;;;;5054770;28;20065;-47
2023/10/15 05:01:48;;;;;;;3.92;1.00;;;6.90;99.90;;;;;;5054787;28;20064;-49
2023/10/15 05:04:14;;;;;;;2.80;0.93;;;6.90;99.90;;;;;;5053547;28;20454;-47
2023/10/15 05:06:40;;;;;;;2.47;0.90;;;6.90;99.90;;;;;;5054577;28;20077;-46
2023/10/15 05:09:09;;;;;;;4.07;1.00;;;6.90;99.90;;;;;;5054499;28;20028;-47
2023/10/15 05:11:35;;;;;;;5.78;1.08;;;7.00;99.90;;;;;;5054551;28;20041;-48
2023/10/15 05:14:00;;;;;;;6.45;1.10;;;6.90;99.90;;;;;;5053408;28;20037;-46
2023/10/15 05:16:26;;;;;;;3.28;1.00;;;7.00;99.90;;;;;;5054371;28;20044;-48
2023/10/15 05:18:52;;;;;;;3.80;0.93;;;7.10;99.90;;;;;;5058055;28;20446;-47
2023/10/15 05:21:17;;;;;;;4.45;0.90;;;7.10;99.90;;;;;;5058420;28;20470;-49
2023/10/15 05:23:45;;;;;;;8.68;1.15;;;7.20;99.90;;;;;;5058472;28;20120;-47
2023/10/15 05:26:11;;;;;;;5.15;1.05;;;7.30;99.90;;;;;;5057190;28;20037;-49
2023/10/15 05:28:37;;;;;;;5.50;1.42;;;7.40;99.90;;;;;;5058709;28;20052;-49
2023/10/15 05:31:02;;;;;;;3.92;0.90;;;7.40;99.90;;;;;;5058297;28;20102;-49
2023/10/15 05:33:28;;;;;;;7.03;2.53;;;7.50;99.90;;;;;;5058292;28;20033;-49
2023/10/15 05:35:56;;;;;;;5.35;1.35;;;7.50;99.90;;;;;;5057683;28;20029;-46
2023/10/15 05:38:22;;;;;;;4.20;1.23;;;7.60;99.90;;;;;;5058767;28;20095;-46
2023/10/15 05:40:49;;;;;;;3.90;1.25;;;7.60;99.90;;;;;;5058047;28;20068;-49
2023/10/15 05:43:17;;;;;;;4.63;1.08;;;7.60;99.90;;;;;;5058102;28;20041;-49
2023/10/15 05:45:46;;;;;;;4.50;1.30;;;7.60;99.90;;;;;;5057964;28;20052;-48
2023/10/15 05:48:11;;;;;;;5.00;1.10;;;7.60;99.90;;;;;;5058159;28;20059;-47
2023/10/15 05:50:39;;;;;;;5.47;1.17;;;7.60;99.90;;;;;;5057669;28;20282;-48
2023/10/15 05:53:06;;;;;;;4.40;1.48;;;7.60;99.90;;;;;;5057855;28;20040;-47
2023/10/15 05:55:32;;;;;;;7.38;1.60;;;7.50;99.90;;;;;;5057820;28;20067;-45
2023/10/15 05:57:58;;;;;;;6.10;2.28;;;7.50;99.90;;;;;;5057756;28;20062;-46
2023/10/15 06:00:26;;;;;;;8.30;2.97;;;7.50;99.90;;;;;;5057687;28;20053;-46
2023/10/15 06:02:53;;;;;;;6.57;1.65;;;7.50;99.90;;;;;;5057725;28;20029;-46
2023/10/15 06:05:19;;;;;;;3.17;1.38;;;7.50;99.90;;;;;;5057304;28;20111;-46
2023/10/15 06:07:45;;;;;;;4.97;1.77;;;7.40;99.90;;;;;;5057745;28;20116;-46
2023/10/15 06:10:14;;;;;;;4.35;1.30;;;7.40;99.90;;;;;;5057213;28;20112;-46
2023/10/15 06:12:40;;;;;;;2.15;1.02;;;7.30;99.90;;;;;;5057522;28;20077;-45
2023/10/15 06:15:06;;;;;;;5.43;1.08;;;7.30;99.90;;;;;;5057514;28;20029;-46
2023/10/15 06:17:32;;;;;;;6.85;1.00;;;7.20;99.90;;;;;;5057421;28;20112;-46
2023/10/15 06:19:58;;;;;;;3.85;1.05;;;7.20;99.90;;;;;;5057320;28;20112;-45
2023/10/15 06:22:25;;;;;;;7.90;2.00;;;7.10;99.90;;;;;;5057263;28;20369;-45
2023/10/15 06:24:52;;;;;;;5.10;1.00;;;7.00;99.90;;;;;;5056952;28;20107;-45
2023/10/15 06:27:18;;;;;;;3.85;1.10;;;7.00;99.90;;;;;;5057191;28;20064;-46
2023/10/15 06:29:44;;;;;;;3.03;1.25;;;6.90;99.90;;;;;;5057112;28;20086;-45
2023/10/15 06:32:10;;;;;;;4.78;1.67;;;6.80;99.90;;;;;;5057301;28;20513;-46
2023/10/15 06:34:39;;;;;;;5.32;1.00;;;6.70;99.90;;;;;;5056998;28;20112;-45
2023/10/15 06:37:08;;;;;;;2.90;0.90;;;6.70;99.90;;;;;;5056923;28;20078;-45
2023/10/15 06:39:34;;;;;;;8.02;1.63;;;6.60;99.90;;;;;;5057112;28;20033;-45
2023/10/15 06:42:00;;;;;;;7.40;1.98;;;6.70;99.90;;;;;;5056511;28;20031;-45
2023/10/15 06:44:26;;;;;;;3.85;1.58;;;6.60;99.90;;;;;;5056669;28;20103;-48
2023/10/15 06:46:51;;;;;;;4.63;1.30;;;6.50;99.90;;;;;;5057078;28;20026;-45
2023/10/15 06:49:18;;;;;;;3.67;1.13;;;6.50;99.90;;;;;;5056876;28;20366;-46
2023/10/15 06:51:44;;;;;;;5.57;1.30;;;6.50;99.90;;;;;;5056939;28;20028;-46
2023/10/15 06:54:11;;;;;;;2.78;1.13;;;6.40;99.90;;;;;;5056323;28;20037;-45
2023/10/15 06:56:37;;;;;;;3.28;1.27;;;6.40;99.90;;;;;;5056598;28;20032;-47
2023/10/15 06:59:03;;;;;;;4.18;1.20;;;6.20;99.90;;;;;;5056470;28;20036;-46
2023/10/15 07:01:30;;;;;;;6.57;1.25;;;6.30;99.90;;;;;;5056694;28;20037;-48
2023/10/15 07:03:56;;;;;;;3.33;1.17;;;6.30;99.90;;;;;;5056496;28;20036;-47
2023/10/15 07:06:22;;;;;;;4.45;1.23;;;6.20;99.90;;;;;;5056006;28;20122;-47
2023/10/15 07:08:49;;;;;;;4.65;1.30;;;6.30;99.90;;;;;;5056125;28;20466;-48
2023/10/15 07:11:15;;;;;;;6.80;2.55;;;6.20;99.90;;;;;;5055979;28;20069;-47
2023/10/15 07:13:41;;;;;;;5.15;2.15;;;6.20;99.90;;;;;;5056310;28;20495;-49
2023/10/15 07:16:06;;;;;;;3.38;1.20;;;6.20;99.90;;;;;;5054871;28;20405;-46
2023/10/15 07:18:35;;;;;;;5.38;2.10;;;6.20;99.90;;;;;;5056148;28;20102;-46
2023/10/15 07:21:00;;;;;;;3.30;1.50;;;6.20;99.90;;;;;;5056174;28;20107;-45
2023/10/15 07:23:26;;;;;;;2.78;1.30;;;6.60;99.90;;;;;;5056127;28;20112;-45
2023/10/15 07:25:52;;;;;;;3.08;1.25;;;6.90;99.90;;;;;;5055787;28;20518;-47
2023/10/15 07:28:17;;;;;;;2.17;1.00;;;6.70;99.90;;;;;;5055635;28;20447;-46
2023/10/15 07:30:43;;;;;;;2.97;1.50;;;6.70;99.90;;;;;;5056241;28;20041;-46
2023/10/15 07:33:10;;;;;;;3.10;1.08;;;6.60;99.90;;;;;;5055886;28;20049;-45
2023/10/15 07:35:35;;;;;;;2.47;1.30;;;6.60;99.90;;;;;;5055850;28;20097;-46
2023/10/15 07:38:04;;;;;;;4.07;1.17;;;6.60;99.90;;;;;;5054615;28;20115;-48
2023/10/15 07:40:32;;;;;;;3.33;1.67;;;6.60;99.90;;;;;;5055017;28;20037;-46
2023/10/15 07:42:59;;;;;;;5.85;1.42;;;6.50;99.90;;;;;;5054644;28;20040;-49
2023/10/15 07:45:28;;;;;;;7.00;2.88;;;6.60;99.90;;;;;;5055530;28;20183;-48
2023/10/15 07:47:54;;;;;;;11.00;4.10;;;6.60;99.90;;;;;;5055514;28;20090;-49
2023/10/15 07:50:23;;;;;;;18.45;5.00;;;6.70;99.90;;;;;;5054446;28;20037;-49
2023/10/15 07:52:50;;;;;;;10.10;4.18;;;7.10;99.90;;;;;;5054390;28;20036;-49
2023/10/15 07:55:16;;;;;;;6.75;2.90;;;7.30;99.90;;;;;;5055134;28;20033;-49
2023/10/15 07:57:42;;;;;;;5.00;1.92;;;7.50;99.90;;;;;;5054457;28;20021;-49
2023/10/15 08:00:14;;;;;;;8.52;3.38;;;7.40;99.90;;;;;;5054746;28;20039;-49
2023/10/15 08:02:41;;;;;;;7.75;3.20;;;7.90;99.90;;;;;;5054403;28;20037;-46
2023/10/15 08:05:08;;;;;;;7.40;2.63;;;8.70;99.90;;;;;;5055300;28;20119;-46
2023/10/15 08:07:34;;;;;;;6.60;1.95;;;9.70;99.90;;;;;;5054161;28;20048;-46
2023/10/15 08:10:00;;;;;;;9.15;2.72;;;10.40;99.90;;;;;;5055453;28;20068;-49
2023/10/15 08:12:27;;;;;;;7.03;2.28;;;11.20;99.90;;;;;;5055055;28;20037;-49
2023/10/15 08:14:54;;;;;;;4.22;1.90;;;11.70;99.90;;;;;;5055077;28;20041;-50
2023/10/15 08:17:21;;;;;;;6.13;2.10;;;12.20;99.90;;;;;;5055492;28;20102;-51
2023/10/15 08:19:46;;;;;;;3.22;1.63;;;12.10;99.90;;;;;;5055120;28;20075;-49
2023/10/15 08:22:12;;;;;;;4.50;2.05;;;11.70;99.90;;;;;;5055093;28;20409;-50
2023/10/15 08:24:38;;;;;;;5.65;1.75;;;11.60;99.90;;;;;;5054878;28;20116;-52
2023/10/15 08:27:05;;;;;;;5.85;1.83;;;11.90;99.90;;;;;;5054825;28;20029;-47
2023/10/15 08:29:31;;;;;;;5.63;1.83;;;12.30;99.90;;;;;;5054474;28;20070;-47
2023/10/15 08:31:57;;;;;;;7.25;2.40;;;13.10;99.90;;;;;;5055186;28;20119;-48
2023/10/15 08:34:23;;;;;;;3.38;1.67;;;13.70;99.90;;;;;;5054526;28;20111;-49
2023/10/15 08:36:49;;;;;;;3.35;1.30;;;14.10;99.90;;;;;;5054561;28;20367;-48
2023/10/15 08:39:15;;;;;;;3.53;1.42;;;14.40;99.90;;;;;;5054585;28;20036;-47
2023/10/15 08:41:43;;;;;;;3.80;1.30;;;14.50;98.80;;;;;;5054735;28;20100;-47
2023/10/15 08:44:09;;;;;;;2.92;1.50;;;15.00;96.90;;;;;;5054813;28;20457;-47
2023/10/15 08:46:38;;;;;;;3.92;1.15;;;15.00;96.80;;;;;;5053282;28;20048;-47
2023/10/15 08:49:09;;;;;;;3.10;1.25;;;15.60;93.60;;;;;;5055096;28;20024;-50
2023/10/15 08:51:36;;;;;;;3.63;1.10;;;15.50;92.50;;;;;;5052554;28;20365;-48
2023/10/15 08:54:02;;;;;;;6.65;1.80;;;15.50;93.80;;;;;;5054452;28;20170;-48
2023/10/15 08:56:32;;;;;;;3.97;1.38;;;15.60;94.50;;;;;;5054506;28;20320;-50
2023/10/15 08:58:58;;;;;;;4.03;1.60;;;16.10;92.50;;;;;;5053474;28;20385;-50
2023/10/15 09:01:23;;;;;;;4.10;0.80;;;16.60;91.40;;;;;;5053611;28;20117;-50
2023/10/15 09:03:52;;;;;;;3.38;1.10;;;16.70;88.90;;;;;;5053642;28;20065;-50
2023/10/15 09:06:19;;;;;;;4.43;1.35;;;16.60;87.60;;;;;;5053822;28;20114;-52
2023/10/15 09:08:49;;;;;;;4.75;1.77;;;15.70;88.40;;;;;;5053181;28;20037;-50
2023/10/15 09:11:16;;;;;;;6.18;2.03;;;14.50;91.90;;;;;;5054699;28;20029;-50
2023/10/15 09:13:41;;;;;;;8.20;1.40;;;13.60;96.10;;;;;;5054665;28;20377;-50
2023/10/15 09:16:08;;;;;;;2.90;1.33;;;13.20;99.50;;;;;;5054686;28;20036;-49
2023/10/15 09:18:36;;;;;;;5.28;1.80;;;12.90;99.90;;;;;;5054141;28;20037;-51
2023/10/15 09:21:06;;;;;;;4.97;1.42;;;14.30;96.80;;;;;;5054847;28;20029;-47
2023/10/15 09:23:35;;;;;;;1.90;0.90;;;15.60;91.30;;;;;;5037246;28;20075;-49
2023/10/15 09:26:01;;;;;;;2.38;1.00;;;16.80;82.00;;;;;;5054315;28;20033;-50
2023/10/15 09:28:27;;;;;;;2.60;1.13;;;17.70;73.40;;;;;;5054053;28;20036;-51
2023/10/15 09:31:04;;;;;;;8.70;1.30;;;18.10;69.40;;;;;;5036982;28;20047;-50
2023/10/15 09:33:30;;;;;;;3.92;1.10;;;17.80;68.10;;;;;;5054424;28;20041;-50
2023/10/15 09:35:57;;;;;;;3.78;1.17;;;18.20;66.90;;;;;;5054287;28;20488;-51
2023/10/15 09:38:22;;;;;;;5.15;1.25;;;18.20;65.70;;;;;;5054322;28;20416;-51
2023/10/15 09:40:48;;;;;;;4.00;1.25;;;18.40;64.60;;;;;;5054036;28;20080;-51
2023/10/15 09:43:14;;;;;;;3.97;1.33;;;18.50;63.20;;;;;;5054661;28;20029;-51
2023/10/15 09:45:41;;;;;;;3.13;1.40;;;18.00;64.20;;;;;;5054364;28;20041;-50
2023/10/15 09:48:09;;;;;;;6.25;1.92;;;17.90;61.90;;;;;;5052818;28;20052;-54
2023/10/15 09:50:38;;;;;;;3.88;1.10;;;17.80;66.20;;;;;;5054236;28;20052;-51
2023/10/15 09:53:09;;;;;;;4.32;1.30;;;17.80;65.20;;;;;;5054176;28;20404;-52
2023/10/15 09:55:35;;;;;;;4.40;1.00;;;18.10;64.50;;;;;;5054096;28;20075;-51
2023/10/15 09:58:04;;;;;;;4.63;1.67;;;18.20;63.10;;;;;;5052666;28;20045;-51
2023/10/15 10:03:47;;;;;;;7.72;1.15;;;18.80;63.10;;;;;;5053722;28;20048;-50
2023/10/15 10:06:32;;;;;;;4.55;1.10;;;19.30;56.40;;;;;;5057048;28;20457;-51
2023/10/15 10:09:36;;;;;;;3.05;1.10;;;19.60;51.20;;;;;;5057303;28;20041;-51
2023/10/15 10:12:22;;;;;;;4.90;1.95;;;19.80;48.90;;;;;;5057582;28;20418;-51
2023/10/15 10:15:15;;;;;;;5.93;1.40;;;20.00;49.30;;;;;;5057346;28;20407;-52
2023/10/15 10:17:41;;;;;;;4.22;1.23;;;20.20;44.50;;;;;;5057625;28;20029;-50
2023/10/15 10:20:19;;;;;;;3.97;1.60;;;20.40;42.80;;;;;;5039684;28;20358;-50
2023/10/15 10:22:59;;;;;;;6.55;1.77;;;20.60;40.20;;;;;;5056550;28;20342;-50
2023/10/15 10:25:48;;;;;;;4.10;1.83;;;21.00;36.00;;;;;;5056067;28;20043;-51
2023/10/15 10:28:16;;;;;;;4.70;1.30;;;21.40;30.20;;;;;;5057498;28;20029;-49
2023/10/15 10:30:54;;;;;;;4.22;1.00;;;22.00;28.50;;;;;;5057097;28;20326;-49
2023/10/15 10:33:44;;;;;;;4.97;1.00;;;22.10;26.40;;;;;;5057285;28;20346;-49
2023/10/15 10:36:30;;;;;;;3.22;1.10;;;22.30;26.00;;;;;;5057039;28;20049;-50
2023/10/15 10:39:10;;;;;;;5.38;1.38;;;22.40;24.90;;;;;;5056730;28;20036;-52
2023/10/15 10:41:50;;;;;;;6.22;1.70;;;22.80;23.70;;;;;;5057082;28;20037;-52
2023/10/15 10:44:21;;;;;;;3.67;1.20;;;23.30;25.70;;;;;;5056076;28;20037;-49
2023/10/15 10:46:47;;;;;;;4.90;1.23;;;24.00;23.40;;;;;;5056469;28;20033;-49
2023/10/15 10:49:18;;;;;;;5.55;1.40;;;23.80;21.00;;;;;;5056614;28;20173;-51
2023/10/15 10:52:14;;;;;;;3.28;1.20;;;23.70;21.20;;;;;;5056136;28;20501;-50
2023/10/15 10:54:39;;;;;;;5.82;1.40;;;23.80;21.10;;;;;;5056130;28;20037;-48
2023/10/15 10:57:09;;;;;;;4.82;2.28;;;23.60;21.00;;;;;;5056323;28;20033;-51
2023/10/15 10:59:36;;;;;;;4.70;1.42;;;23.40;20.90;;;;;;5039231;28;20311;-52
2023/10/15 11:02:06;;;;;;;5.93;1.70;;;22.30;20.30;;;;;;5056378;28;20033;-51
2023/10/15 11:04:32;;;;;;;;;;;21.10;23.80;;;;;;5055550;28;20401;-51
2023/10/15 11:06:58;;;;;;;3.70;1.75;;;20.60;22.70;;;;;;5055724;28;20011;-51
2023/10/15 11:09:24;;;;;;;3.33;1.30;;;20.50;27.30;;;;;;5054865;28;20036;-50
2023/10/15 11:11:51;;;;;;;7.53;3.63;;;20.00;24.70;;;;;;5056353;28;20496;-51
2023/10/15 11:14:20;;;;;;;4.10;1.77;;;19.90;25.30;;;;;;5054181;28;20103;-50
2023/10/15 11:16:45;;;;;;;4.07;1.45;;;20.70;25.60;;;;;;5055264;28;20036;-50
2023/10/15 11:19:18;;;;;;;4.55;1.45;;;21.90;23.70;;;;;;5055059;28;20033;-51
2023/10/15 11:21:44;;;;;;;7.63;1.75;;;23.30;21.70;;;;;;5056188;28;20040;-51
2023/10/15 11:24:10;;;;;;;3.53;1.20;;;24.20;20.60;;;;;;5055921;28;20067;-50
2023/10/15 11:26:37;;;;;;;2.97;1.17;;;24.70;18.00;;;;;;5054948;28;20056;-55
2023/10/15 11:29:04;;;;;;;4.70;1.13;;;24.80;18.00;;;;;;5055655;28;20025;-55
2023/10/15 11:31:30;;;;;;;6.63;1.20;;;24.60;16.80;;;;;;5055832;28;20044;-54
2023/10/15 11:33:55;;;;;;;4.10;1.40;;;24.10;16.20;;;;;;5055827;28;20032;-53
2023/10/15 11:36:23;;;;;;;6.30;1.40;;;24.20;18.10;;;;;;5054749;28;20094;-55
2023/10/15 11:38:49;;;;;;;5.60;1.25;;;24.40;16.20;;;;;;5055617;28;20086;-54
2023/10/15 11:41:15;;;;;;;4.80;1.30;;;24.00;15.80;;;;;;5055718;28;20076;-54
2023/10/15 11:43:43;;;;;;;4.85;1.40;;;23.70;17.70;;;;;;5056199;28;20294;-55
2023/10/15 11:46:10;;;;;;;4.50;2.00;;;23.80;16.80;;;;;;5054747;28;20315;-54
2023/10/15 11:48:37;;;;;;;5.03;1.40;;;23.20;18.80;;;;;;5055254;28;20040;-55
2023/10/15 11:51:08;;;;;;;4.38;1.55;;;24.00;17.80;;;;;;5055475;28;20040;-54
2023/10/15 11:53:34;;;;;;;4.05;1.58;;;24.20;17.20;;;;;;5054926;28;20044;-56
2023/10/15 11:56:02;;;;;;;6.53;1.95;;;22.80;17.90;;;;;;5054761;28;20032;-56
2023/10/15 11:58:31;;;;;;;3.60;1.15;;;20.90;20.90;;;;;;5054377;28;20025;-55
2023/10/15 12:00:58;;;;;;;;;;;19.70;23.10;;;;;;5055696;28;20086;-55
2023/10/15 12:03:24;;;;;;;3.30;1.45;;;19.00;24.00;;;;;;5054278;28;19923;-56
2023/10/15 12:05:51;;;;;;;5.18;1.88;;;18.20;25.60;;;;;;5037556;28;20400;-55
2023/10/15 12:08:21;;;;;;;3.13;1.13;;;17.60;28.00;;;;;;5054932;28;20059;-56
2023/10/15 12:10:47;;;;;;;3.22;1.50;;;17.40;30.00;;;;;;5055118;28;20115;-54
2023/10/15 12:13:14;;;;;;;8.10;2.22;;;17.60;27.90;;;;;;5054022;28;20076;-55
2023/10/15 12:15:43;;;;;;;8.55;2.97;;;19.50;24.90;;;;;;5055341;28;20037;-56
2023/10/15 12:18:09;;;;;;;5.33;1.30;;;20.80;23.90;;;;;;5055260;28;20048;-56
2023/10/15 12:20:35;;;;;;;2.88;1.38;;;22.40;20.80;;;;;;5053661;28;20029;-55
2023/10/15 12:23:00;;;;;;;4.07;1.35;;;22.50;19.70;;;;;;5054525;28;20036;-57
2023/10/15 12:25:26;;;;;;;2.25;1.00;;;23.00;18.20;;;;;;5054863;28;20080;-56
2023/10/15 12:27:52;;;;;;;4.43;0.95;;;23.40;18.50;;;;;;5054700;28;20029;-55
2023/10/15 12:30:24;;;;;;;3.22;1.00;;;23.80;17.60;;;;;;5053640;28;20029;-56
2023/10/15 12:32:58;;;;;;;2.13;0.93;;;23.90;17.30;;;;;;5054843;28;20033;-55
2023/10/15 12:35:27;;;;;;;4.53;1.10;;;24.10;16.40;;;;;;5053942;28;20061;-56
2023/10/15 12:38:02;;;;;;;8.40;1.65;;;24.60;16.60;;;;;;5054974;28;20033;-55
2023/10/15 12:40:32;;;;;;;3.65;1.23;;;24.70;15.10;;;;;;5054492;28;20108;-56
2023/10/15 12:43:01;;;;;;;5.30;1.13;;;24.80;14.10;;;;;;5054346;28;20029;-55
2023/10/15 12:45:28;;;;;;;3.38;1.20;;;24.40;14.00;;;;;;5054499;28;20033;-56
2023/10/15 12:47:54;;;;;;;4.57;1.17;;;23.70;15.80;;;;;;5054624;28;20466;-56
2023/10/15 12:50:20;;;;;;;3.72;1.50;;;23.10;15.70;;;;;;5054224;28;20112;-56
2023/10/15 12:52:46;;;;;;;3.83;1.40;;;23.00;17.40;;;;;;5054479;28;20029;-56
2023/10/15 12:55:15;;;;;;;8.13;1.55;;;24.20;14.80;;;;;;5054027;28;20108;-56
2023/10/15 12:57:41;;;;;;;2.60;0.90;;;24.80;14.30;;;;;;5054411;28;20029;-56
2023/10/15 13:00:17;;;;;;;4.93;1.50;;;24.50;14.20;;;;;;5054424;28;20049;-56
2023/10/15 13:02:44;;;;;;;3.55;0.82;;;23.50;14.10;;;;;;5054544;28;20331;-56
2023/10/15 13:05:10;;;;;;;2.85;0.90;;;22.20;15.40;;;;;;5054353;28;20032;-56
2023/10/15 13:07:35;;;;;;;5.40;1.30;;;22.40;16.30;;;;;;5054502;28;20052;-55
2023/10/15 13:10:02;;;;;;;3.05;1.30;;;22.00;16.70;;;;;;5054526;28;20029;-55
2023/10/15 13:12:28;;;;;;;3.20;1.10;;;22.70;16.10;;;;;;5054251;28;20450;-55
2023/10/15 13:14:54;;;;;;;3.00;1.08;;;22.80;16.00;;;;;;5052981;28;20042;-55
2023/10/15 13:17:20;;;;;;;3.83;0.98;;;23.50;15.00;;;;;;5054318;28;20104;-55
2023/10/15 13:19:46;;;;;;;3.42;1.23;;;23.80;15.00;;;;;;5054671;28;20045;-55
2023/10/15 13:22:11;;;;;;;3.40;1.10;;;21.60;16.90;;;;;;5055022;28;20033;-55
2023/10/15 13:24:38;;;;;;;4.95;1.17;;;20.20;18.60;;;;;;5054330;28;20078;-53
2023/10/15 13:27:05;;;;;;;2.40;0.82;;;19.20;19.90;;;;;;5053774;28;20374;-54
2023/10/15 13:29:31;;;;;;;3.80;1.00;;;18.80;23.20;;;;;;5054170;28;20048;-54